createdAt,value
2023-01-17T00:02:02.673Z,73.50
2023-01-17T00:04:48.159Z,73.60
2023-01-17T00:07:35.137Z,73.70
2023-01-17T00:10:07.188Z,73.60
2023-01-17T00:12:35.085Z,73.60
2023-01-17T00:15:02.477Z,73.60
2023-01-17T00:17:30.373Z,73.60
2023-01-17T00:20:16.668Z,73.60
2023-01-17T00:23:02.866Z,73.60
2023-01-17T00:25:58.205Z,73.70
2023-01-17T00:28:25.264Z,73.80
2023-01-17T00:30:52.239Z,73.80
2023-01-17T00:33:19.927Z,73.80
2023-01-17T00:35:46.841Z,73.90
2023-01-17T00:38:25.775Z,73.90
2023-01-17T00:40:53.106Z,73.90
2023-01-17T00:43:40.601Z,73.90
2023-01-17T00:46:26.937Z,73.90
2023-01-17T00:49:12.610Z,73.90
2023-01-17T00:51:59.262Z,73.90
2023-01-17T00:54:44.368Z,73.90
2023-01-17T00:57:29.856Z,73.90
2023-01-17T01:00:15.157Z,73.80
2023-01-17T01:03:01.043Z,73.80
2023-01-17T01:05:46.264Z,73.80
2023-01-17T01:08:49.453Z,73.80
2023-01-17T01:11:38.798Z,73.70
2023-01-17T01:14:26.215Z,73.70
2023-01-17T01:17:11.565Z,73.70
2023-01-17T01:19:56.917Z,73.70
2023-01-17T01:22:42.377Z,73.70
2023-01-17T01:25:28.180Z,73.70
2023-01-17T01:28:23.700Z,73.70
2023-01-17T01:31:08.975Z,73.70
2023-01-17T01:33:36.061Z,73.60
2023-01-17T01:36:02.788Z,73.60
2023-01-17T01:38:29.464Z,73.70
2023-01-17T01:40:56.912Z,73.70
2023-01-17T01:43:50.111Z,73.80
2023-01-17T01:46:23.165Z,73.70
2023-01-17T01:48:52.886Z,73.80
2023-01-17T01:51:28.015Z,73.80
2023-01-17T01:53:59.860Z,73.70
2023-01-17T01:56:27.601Z,73.70
2023-01-17T01:58:55.061Z,73.80
2023-01-17T02:01:21.957Z,73.80
2023-01-17T02:03:49.807Z,73.80
2023-01-17T02:06:19.613Z,73.70
2023-01-17T02:08:46.659Z,73.70
2023-01-17T02:11:13.534Z,73.70
2023-01-17T02:13:40.992Z,73.60
2023-01-17T02:16:32.944Z,73.60
2023-01-17T02:19:36.141Z,73.60
2023-01-17T02:22:36.684Z,73.50
2023-01-17T02:25:39.925Z,73.50
2023-01-17T02:28:25.309Z,73.50
2023-01-17T02:30:56.604Z,73.50
2023-01-17T02:33:47.521Z,73.60
2023-01-17T02:36:30.248Z,73.60
2023-01-17T02:39:10.059Z,73.50
2023-01-17T02:41:43.542Z,73.50
2023-01-17T02:44:15.362Z,73.50
2023-01-17T02:46:57.001Z,73.50
2023-01-17T02:49:29.922Z,73.50
2023-01-17T02:52:22.988Z,73.50
2023-01-17T02:55:04.854Z,73.50
2023-01-17T02:58:13.367Z,73.50
2023-01-17T03:01:05.025Z,73.50
2023-01-17T03:03:34.831Z,73.50
2023-01-17T03:06:17.524Z,73.60
2023-01-17T03:08:46.996Z,73.70
2023-01-17T03:11:16.877Z,73.70
2023-01-17T03:13:43.852Z,73.70
2023-01-17T03:16:22.368Z,73.70
2023-01-17T03:18:49.440Z,73.60
2023-01-17T03:21:16.459Z,73.60
2023-01-17T03:23:43.446Z,73.60
2023-01-17T03:26:10.100Z,73.60
2023-01-17T03:28:36.688Z,73.60
2023-01-17T03:31:03.424Z,73.60
2023-01-17T03:33:30.200Z,73.60
2023-01-17T03:35:59.831Z,73.60
2023-01-17T03:38:28.330Z,73.60
2023-01-17T03:40:55.317Z,73.50
2023-01-17T03:43:21.985Z,73.50
2023-01-17T03:45:54.473Z,73.50
2023-01-17T03:48:21.741Z,73.50
2023-01-17T03:50:51.621Z,73.50
2023-01-17T03:53:18.767Z,73.50
2023-01-17T03:55:46.339Z,73.50
2023-01-17T03:58:13.117Z,73.50
2023-01-17T04:00:40.185Z,73.50
2023-01-17T04:03:06.941Z,73.50
2023-01-17T04:05:33.744Z,73.40
2023-01-17T04:08:00.617Z,73.50
2023-01-17T04:10:27.369Z,73.40
2023-01-17T04:12:54.067Z,73.40
2023-01-17T04:15:21.428Z,73.40
2023-01-17T04:17:48.198Z,73.40
2023-01-17T04:20:28.765Z,73.40
2023-01-17T04:22:55.566Z,73.30
2023-01-17T04:25:22.193Z,73.40
2023-01-17T04:27:48.816Z,73.30
2023-01-17T04:30:15.660Z,73.30
2023-01-17T04:32:42.295Z,73.30
2023-01-17T04:35:09.589Z,73.30
2023-01-17T04:37:36.959Z,73.30
2023-01-17T04:40:05.049Z,73.30
2023-01-17T04:42:31.743Z,73.30
2023-01-17T04:44:58.544Z,73.20
2023-01-17T04:47:25.226Z,73.30
2023-01-17T04:49:52.295Z,73.30
2023-01-17T04:52:20.525Z,73.30
2023-01-17T04:54:50.867Z,73.20
2023-01-17T04:57:18.320Z,73.20
2023-01-17T04:59:45.455Z,73.20
2023-01-17T05:02:12.608Z,73.20
2023-01-17T05:04:39.739Z,73.30
2023-01-17T05:07:07.024Z,73.20
2023-01-17T05:09:33.721Z,73.20
2023-01-17T05:12:00.554Z,73.20
2023-01-17T05:14:27.424Z,73.30
2023-01-17T05:16:57.110Z,73.30
2023-01-17T05:19:25.239Z,73.30
2023-01-17T05:21:52.736Z,73.20
2023-01-17T05:24:19.804Z,73.30
2023-01-17T05:26:54.503Z,73.30
2023-01-17T05:29:21.625Z,73.30
2023-01-17T05:31:48.545Z,73.30
2023-01-17T05:34:15.273Z,73.30
2023-01-17T05:36:41.956Z,73.30
2023-01-17T05:39:08.746Z,73.30
2023-01-17T05:41:35.543Z,73.30
2023-01-17T05:44:02.266Z,73.30
2023-01-17T05:46:29.018Z,73.30
2023-01-17T05:48:55.874Z,73.30
2023-01-17T05:51:22.564Z,73.30
2023-01-17T05:53:49.345Z,73.30
2023-01-17T05:56:16.073Z,73.30
2023-01-17T05:58:42.773Z,73.30
2023-01-17T06:01:09.498Z,73.30
2023-01-17T06:03:36.159Z,73.30
2023-01-17T06:06:02.941Z,73.30
2023-01-17T06:08:29.624Z,73.30
2023-01-17T06:10:58.876Z,73.30
2023-01-17T06:13:25.734Z,73.30
2023-01-17T06:15:52.611Z,73.30
2023-01-17T06:18:19.554Z,73.30
2023-01-17T06:20:46.291Z,73.20
2023-01-17T06:23:14.434Z,73.20
2023-01-17T06:25:43.927Z,73.20
2023-01-17T06:28:12.207Z,73.20
2023-01-17T06:30:39.472Z,73.10
2023-01-17T06:33:06.369Z,73.10
2023-01-17T06:35:33.273Z,73.10
2023-01-17T06:38:00.385Z,73.10
2023-01-17T06:40:28.536Z,73.10
2023-01-17T06:43:00.609Z,73.10
2023-01-17T06:45:29.691Z,73.10
2023-01-17T06:47:56.486Z,73.00
2023-01-17T06:50:23.129Z,73.00
2023-01-17T06:53:00.762Z,73.00
2023-01-17T06:55:29.051Z,73.00
2023-01-17T06:57:59.540Z,73.00
2023-01-17T07:00:27.522Z,73.00
2023-01-17T07:02:54.294Z,73.00
2023-01-17T07:05:21.508Z,73.00
2023-01-17T07:07:48.219Z,73.00
2023-01-17T07:10:16.236Z,73.00
2023-01-17T07:12:43.045Z,73.00
2023-01-17T07:15:10.498Z,73.00
2023-01-17T07:17:37.351Z,73.00
2023-01-17T07:20:04.486Z,73.00
2023-01-17T07:22:31.201Z,72.90
2023-01-17T07:25:00.611Z,72.90
2023-01-17T07:27:30.216Z,72.80
2023-01-17T07:29:57.627Z,72.60
2023-01-17T07:32:26.531Z,72.60
2023-01-17T07:34:54.316Z,72.60
2023-01-17T07:37:21.276Z,72.60
2023-01-17T07:39:47.971Z,72.60
2023-01-17T07:42:14.788Z,72.60
2023-01-17T07:44:44.025Z,72.60
2023-01-17T07:47:11.460Z,72.60
2023-01-17T07:49:38.404Z,72.60
2023-01-17T07:52:07.285Z,72.60
2023-01-17T07:54:34.060Z,72.60
2023-01-17T07:57:01.503Z,72.60
2023-01-17T07:59:28.389Z,72.60
2023-01-17T08:01:55.181Z,72.60
2023-01-17T08:04:24.753Z,72.60
2023-01-17T08:06:51.904Z,72.60
2023-01-17T08:09:19.332Z,72.60
2023-01-17T08:11:45.912Z,72.60
2023-01-17T08:14:12.564Z,72.50
2023-01-17T08:16:40.106Z,72.60
2023-01-17T08:19:06.877Z,72.60
2023-01-17T08:21:33.608Z,72.60
2023-01-17T08:24:00.385Z,72.50
2023-01-17T08:26:27.604Z,72.50
2023-01-17T08:28:56.407Z,72.50
2023-01-17T08:31:23.554Z,72.50
2023-01-17T08:33:50.223Z,72.50
2023-01-17T08:36:17.272Z,72.50
2023-01-17T08:38:43.980Z,72.50
2023-01-17T08:41:10.769Z,72.50
2023-01-17T08:43:37.602Z,72.50
2023-01-17T08:46:06.259Z,72.50
2023-01-17T08:48:33.018Z,72.50
2023-01-17T08:51:03.195Z,72.50
2023-01-17T08:53:30.120Z,72.50
2023-01-17T08:56:01.286Z,72.50
2023-01-17T08:58:30.717Z,72.50
2023-01-17T09:01:06.257Z,72.50
2023-01-17T09:03:34.455Z,72.50
2023-01-17T09:06:12.550Z,72.50
2023-01-17T09:08:39.734Z,72.50
2023-01-17T09:11:12.368Z,72.50
2023-01-17T09:13:39.277Z,72.50
2023-01-17T09:16:06.541Z,72.50
2023-01-17T09:18:34.882Z,72.50
2023-01-17T09:21:10.757Z,72.50
2023-01-17T09:23:37.485Z,72.50
2023-01-17T09:26:04.177Z,72.50
2023-01-17T09:28:31.247Z,72.50
2023-01-17T09:30:57.944Z,72.50
2023-01-17T09:33:25.366Z,72.50
2023-01-17T09:35:52.057Z,72.50
2023-01-17T09:38:18.806Z,72.50
2023-01-17T09:40:48.035Z,72.50
2023-01-17T09:43:23.353Z,72.50
2023-01-17T09:45:50.344Z,72.50
2023-01-17T09:48:25.330Z,72.50
2023-01-17T09:51:00.575Z,72.60
2023-01-17T09:53:28.997Z,72.60
2023-01-17T09:56:00.820Z,72.60
2023-01-17T09:58:42.325Z,72.60
2023-01-17T10:01:31.335Z,72.60
2023-01-17T10:04:14.449Z,72.70
2023-01-17T10:07:11.381Z,72.70
2023-01-17T10:09:57.206Z,72.70
2023-01-17T10:12:56.716Z,72.70
2023-01-17T10:15:55.379Z,72.70
2023-01-17T10:18:30.852Z,72.80
2023-01-17T10:21:04.450Z,72.80
2023-01-17T10:23:53.620Z,72.90
2023-01-17T10:26:27.459Z,72.90
2023-01-17T10:28:59.550Z,72.90
2023-01-17T10:31:31.102Z,72.90
2023-01-17T10:34:11.810Z,72.90
2023-01-17T10:36:44.592Z,72.90
2023-01-17T10:39:25.822Z,72.90
2023-01-17T10:42:13.342Z,73.00
2023-01-17T10:44:48.699Z,72.90
2023-01-17T10:47:22.550Z,72.90
2023-01-17T10:49:53.583Z,73.00
2023-01-17T10:52:52.794Z,73.00
2023-01-17T10:55:19.449Z,73.00
2023-01-17T10:57:48.732Z,72.90
2023-01-17T11:00:46.336Z,72.90
2023-01-17T11:03:15.362Z,73.00
2023-01-17T11:05:43.204Z,72.90
2023-01-17T11:08:13.357Z,72.90
2023-01-17T11:10:46.394Z,72.90
2023-01-17T11:13:35.558Z,72.90
2023-01-17T11:16:06.078Z,72.90
2023-01-17T11:18:38.352Z,72.90
2023-01-17T11:21:35.562Z,72.90
2023-01-17T11:24:11.390Z,73.00
2023-01-17T11:26:45.644Z,72.90
2023-01-17T11:29:27.033Z,72.90
2023-01-17T11:31:56.268Z,73.00
2023-01-17T11:34:32.192Z,73.00
2023-01-17T11:37:09.397Z,73.10
2023-01-17T11:39:36.134Z,73.10
2023-01-17T11:42:06.474Z,73.10
2023-01-17T11:44:35.508Z,73.10
2023-01-17T11:47:14.114Z,73.10
2023-01-17T11:49:43.022Z,73.20
2023-01-17T11:52:25.262Z,73.20
2023-01-17T11:54:55.121Z,73.30
2023-01-17T11:57:33.359Z,73.30
2023-01-17T12:00:21.238Z,73.30
2023-01-17T12:03:06.872Z,73.40
2023-01-17T12:05:42.562Z,73.50
2023-01-17T12:08:30.797Z,73.50
2023-01-17T12:11:17.026Z,73.60
2023-01-17T12:14:26.523Z,73.70
2023-01-17T12:17:27.956Z,73.80
2023-01-17T12:20:10.517Z,73.80
2023-01-17T12:23:13.696Z,73.90
2023-01-17T12:26:19.589Z,74.00
2023-01-17T12:29:16.981Z,74.30
2023-01-17T12:32:25.440Z,74.30
2023-01-17T12:35:01.866Z,74.50
2023-01-17T12:37:34.944Z,74.60
2023-01-17T12:40:04.682Z,74.70
2023-01-17T12:42:38.544Z,74.80
2023-01-17T12:45:09.784Z,74.90
2023-01-17T12:47:43.243Z,74.90
2023-01-17T12:50:23.241Z,74.90
2023-01-17T12:53:09.866Z,74.90
2023-01-17T12:55:40.359Z,74.90
2023-01-17T12:58:15.158Z,75.00
2023-01-17T13:00:45.275Z,75.10
2023-01-17T13:04:04.675Z,75.20
2023-01-17T13:06:56.454Z,75.20
2023-01-17T13:09:23.962Z,75.20
2023-01-17T13:12:14.146Z,75.30
2023-01-17T13:14:41.086Z,75.40
2023-01-17T13:17:37.229Z,75.50
2023-01-17T13:20:19.741Z,75.40
2023-01-17T13:22:47.413Z,75.50
2023-01-17T13:25:35.202Z,75.50
2023-01-17T13:28:31.666Z,75.40
2023-01-17T13:31:10.504Z,75.50
2023-01-17T13:33:40.166Z,75.60
2023-01-17T13:36:29.809Z,75.60
2023-01-17T13:39:38.952Z,75.60
2023-01-17T13:42:36.731Z,75.50
2023-01-17T13:45:19.151Z,75.50
2023-01-17T13:47:45.817Z,75.40
2023-01-17T13:50:31.372Z,75.50
2023-01-17T13:53:05.880Z,75.50
2023-01-17T13:55:53.378Z,75.50
2023-01-17T13:58:50.093Z,75.40
2023-01-17T14:01:22.840Z,75.30
2023-01-17T14:03:49.851Z,75.20
2023-01-17T14:06:41.110Z,75.20
2023-01-17T14:09:46.592Z,74.90
2023-01-17T14:12:16.193Z,74.70
2023-01-17T14:14:49.032Z,74.60
2023-01-17T14:17:25.786Z,74.40
2023-01-17T14:20:19.283Z,74.20
2023-01-17T14:22:58.463Z,74.00
2023-01-17T14:25:29.561Z,73.70
2023-01-17T14:28:01.428Z,73.60
2023-01-17T14:30:32.661Z,73.40
2023-01-17T14:32:59.552Z,73.20
2023-01-17T14:35:32.682Z,73.10
2023-01-17T14:38:05.779Z,73.00
2023-01-17T14:40:35.497Z,73.00
2023-01-17T14:43:11.270Z,72.80
2023-01-17T14:45:39.003Z,72.70
2023-01-17T14:48:20.582Z,72.70
2023-01-17T14:50:52.292Z,72.60
2023-01-17T14:53:28.028Z,72.50
2023-01-17T14:56:01.066Z,72.50
2023-01-17T14:58:33.606Z,72.50
2023-01-17T15:01:18.937Z,72.50
2023-01-17T15:03:54.170Z,72.50
2023-01-17T15:06:33.785Z,72.50
2023-01-17T15:09:01.140Z,72.60
2023-01-17T15:11:31.336Z,72.60
2023-01-17T15:14:01.008Z,72.70
2023-01-17T15:16:31.080Z,72.70
2023-01-17T15:19:09.955Z,72.70
2023-01-17T15:21:40.636Z,72.70
2023-01-17T15:24:09.326Z,72.80
2023-01-17T15:26:40.939Z,72.80
2023-01-17T15:29:15.705Z,72.80
2023-01-17T15:31:48.599Z,72.90
2023-01-17T15:34:29.375Z,72.80
2023-01-17T15:37:00.124Z,72.80
2023-01-17T15:39:32.460Z,72.80
2023-01-17T15:42:13.753Z,72.90
2023-01-17T15:44:48.904Z,72.90
2023-01-17T15:47:33.955Z,72.90
2023-01-17T15:50:02.751Z,72.90
2023-01-17T15:52:29.905Z,73.00
2023-01-17T15:55:14.297Z,73.00
2023-01-17T15:57:45.098Z,72.90
2023-01-17T16:00:15.752Z,72.90
2023-01-17T16:02:46.675Z,72.90
2023-01-17T16:05:22.785Z,72.90
2023-01-17T16:08:16.979Z,72.90
2023-01-17T16:10:44.356Z,72.90
2023-01-17T16:13:12.729Z,72.90
2023-01-17T16:15:42.623Z,72.90
2023-01-17T16:18:25.610Z,73.00
2023-01-17T16:21:15.218Z,72.90
2023-01-17T16:23:42.863Z,72.90
2023-01-17T16:26:10.895Z,73.00
2023-01-17T16:28:38.281Z,73.00
2023-01-17T16:31:05.262Z,73.00
2023-01-17T16:33:32.139Z,73.00
2023-01-17T16:35:58.728Z,72.90
2023-01-17T16:38:25.394Z,72.90
2023-01-17T16:40:52.039Z,72.90
2023-01-17T16:43:20.009Z,72.90
2023-01-17T16:45:53.098Z,72.90
2023-01-17T16:48:20.648Z,72.90
2023-01-17T16:50:50.628Z,72.90
2023-01-17T16:53:22.618Z,72.90
2023-01-17T16:55:54.770Z,72.80
2023-01-17T16:58:21.473Z,72.80
2023-01-17T17:00:48.344Z,72.70
2023-01-17T17:03:21.530Z,72.60
2023-01-17T17:05:56.488Z,72.50
2023-01-17T17:10:51.357Z,72.50
2023-01-17T17:13:18.118Z,72.40
2023-01-17T17:15:45.014Z,72.40
2023-01-17T17:18:16.038Z,72.50
2023-01-17T17:20:43.764Z,72.50
2023-01-17T17:23:11.011Z,72.60
2023-01-17T17:25:38.215Z,72.60
2023-01-17T17:28:36.511Z,72.60
2023-01-17T17:31:07.033Z,72.30
2023-01-17T17:33:34.907Z,72.30
2023-01-17T17:36:03.916Z,72.40
2023-01-17T17:38:34.979Z,72.40
2023-01-17T17:41:06.507Z,72.50
2023-01-17T17:43:38.371Z,72.50
2023-01-17T17:46:05.078Z,72.50
2023-01-17T17:48:31.748Z,72.50
2023-01-17T17:50:59.884Z,72.50
2023-01-17T17:53:27.111Z,72.50
2023-01-17T17:55:54.686Z,72.50
2023-01-17T17:58:21.746Z,72.50
2023-01-17T18:00:49.032Z,72.50
2023-01-17T18:03:15.769Z,72.50
2023-01-17T18:05:42.535Z,72.50
2023-01-17T18:08:10.898Z,72.50
2023-01-17T18:10:38.281Z,72.50
2023-01-17T18:13:05.308Z,72.50
2023-01-17T18:15:32.011Z,72.50
2023-01-17T18:17:58.718Z,72.50
2023-01-17T18:20:26.369Z,72.50
2023-01-17T18:22:53.523Z,72.50
2023-01-17T18:25:20.309Z,72.50
2023-01-17T18:27:47.244Z,72.50
2023-01-17T18:30:14.179Z,72.50
2023-01-17T18:32:41.893Z,72.50
2023-01-17T18:35:08.961Z,72.50
2023-01-17T18:37:35.680Z,72.50
2023-01-17T18:40:02.406Z,72.50
2023-01-17T18:42:29.249Z,72.50
2023-01-17T18:44:55.921Z,72.50
2023-01-17T18:47:22.554Z,72.50
2023-01-17T18:49:53.550Z,72.50
2023-01-17T18:52:20.826Z,72.50
2023-01-17T18:54:47.563Z,72.50
2023-01-17T18:57:14.315Z,72.40
2023-01-17T18:59:43.115Z,72.50
2023-01-17T19:02:10.057Z,72.40
2023-01-17T19:04:38.343Z,72.50
2023-01-17T19:07:05.086Z,72.50
2023-01-17T19:09:32.157Z,72.50
2023-01-17T19:11:59.961Z,72.50
2023-01-17T19:14:26.875Z,72.50
2023-01-17T19:16:53.729Z,72.50
2023-01-17T19:19:20.462Z,72.50
2023-01-17T19:21:51.557Z,72.50
2023-01-17T19:24:18.529Z,72.50
2023-01-17T19:26:45.621Z,72.40
2023-01-17T19:29:12.428Z,72.40
2023-01-17T19:31:42.483Z,72.40
2023-01-17T19:34:09.822Z,72.40
2023-01-17T19:36:38.444Z,72.40
2023-01-17T19:39:07.606Z,72.40
2023-01-17T19:41:37.921Z,72.40
2023-01-17T19:44:07.409Z,72.40
2023-01-17T19:46:36.652Z,72.40
2023-01-17T19:49:05.851Z,72.40
2023-01-17T19:51:32.913Z,72.30
2023-01-17T19:54:01.303Z,72.40
2023-01-17T19:56:29.209Z,72.40
2023-01-17T19:59:00.636Z,72.30
2023-01-17T20:01:30.080Z,72.30
2023-01-17T20:03:58.502Z,72.30
2023-01-17T20:06:29.142Z,72.30
2023-01-17T20:08:56.612Z,72.30
2023-01-17T20:11:25.518Z,72.30
2023-01-17T20:13:54.950Z,72.20
2023-01-17T20:16:23.097Z,72.20
2023-01-17T20:18:50.633Z,72.20
2023-01-17T20:21:26.477Z,72.20
2023-01-17T20:23:54.636Z,72.20
2023-01-17T20:26:25.123Z,72.20
2023-01-17T20:28:52.351Z,72.20
2023-01-17T20:31:24.141Z,72.20
2023-01-17T20:33:53.201Z,72.20
2023-01-17T20:36:21.906Z,72.10
2023-01-17T20:38:48.988Z,72.10
2023-01-17T20:41:21.480Z,72.10
2023-01-17T20:43:53.351Z,72.10
2023-01-17T20:46:21.840Z,72.10
2023-01-17T20:48:51.441Z,72.00
2023-01-17T20:51:19.828Z,72.10
2023-01-17T20:53:50.767Z,72.00
2023-01-17T20:56:18.063Z,72.00
2023-01-17T20:58:45.118Z,72.00
2023-01-17T21:01:20.007Z,72.00
2023-01-17T21:03:51.020Z,72.00
2023-01-17T21:06:19.463Z,72.00
2023-01-17T21:08:47.316Z,72.00
2023-01-17T21:11:16.786Z,72.00
2023-01-17T21:13:43.849Z,72.00
2023-01-17T21:16:13.419Z,72.00
2023-01-17T21:18:45.438Z,71.90
2023-01-17T21:21:14.319Z,71.90
2023-01-17T21:23:42.224Z,71.90
2023-01-17T21:26:12.047Z,71.90
2023-01-17T21:28:40.723Z,71.90
2023-01-17T21:31:29.072Z,71.90
2023-01-17T21:33:59.940Z,71.90
2023-01-17T21:36:29.316Z,71.90
2023-01-17T21:38:57.985Z,71.80
2023-01-17T21:41:30.240Z,71.80
2023-01-17T21:43:59.644Z,71.80
2023-01-17T21:46:27.734Z,71.80
2023-01-17T21:48:56.716Z,71.80
2023-01-17T21:51:24.233Z,71.80
2023-01-17T21:53:50.904Z,71.80
2023-01-17T21:56:36.653Z,71.80
2023-01-17T21:59:03.409Z,71.80
2023-01-17T22:01:33.107Z,71.80
2023-01-17T22:04:02.977Z,71.80
2023-01-17T22:06:38.493Z,71.80
2023-01-17T22:09:06.087Z,71.80
2023-01-17T22:11:35.224Z,71.80
2023-01-17T22:14:04.849Z,71.70
2023-01-17T22:16:31.492Z,71.70
2023-01-17T22:18:58.244Z,71.70
2023-01-17T22:21:28.210Z,71.70
2023-01-17T22:23:59.567Z,71.70
2023-01-17T22:26:29.491Z,71.70
2023-01-17T22:28:59.425Z,71.70
2023-01-17T22:31:27.440Z,71.60
2023-01-17T22:33:59.453Z,71.60
2023-01-17T22:36:26.759Z,71.70
2023-01-17T22:38:53.575Z,71.60
2023-01-17T22:41:27.196Z,71.60
2023-01-17T22:43:56.453Z,71.60
2023-01-17T22:46:27.735Z,71.60
2023-01-17T22:48:56.089Z,71.60
2023-01-17T22:51:24.142Z,71.60
2023-01-17T22:53:53.676Z,71.60
2023-01-17T22:56:26.474Z,71.60
2023-01-17T22:58:53.578Z,71.50
2023-01-17T23:01:31.388Z,71.50
2023-01-17T23:04:00.485Z,71.50
2023-01-17T23:06:35.839Z,71.50
2023-01-17T23:09:10.556Z,71.50
2023-01-17T23:11:43.707Z,71.50
2023-01-17T23:14:24.589Z,71.50
2023-01-17T23:17:22.592Z,71.50
2023-01-17T23:19:54.610Z,71.40
2023-01-17T23:22:27.581Z,71.40
2023-01-17T23:24:56.883Z,71.40
2023-01-17T23:27:48.221Z,71.40
2023-01-17T23:30:19.042Z,71.40
2023-01-17T23:32:48.268Z,71.40
2023-01-17T23:35:16.488Z,71.40
2023-01-17T23:38:02.028Z,71.40
2023-01-17T23:40:30.436Z,71.30
2023-01-17T23:43:15.737Z,71.30
2023-01-17T23:45:42.555Z,71.30
2023-01-17T23:48:10.072Z,71.30
2023-01-17T23:50:38.431Z,71.30
2023-01-17T23:53:08.227Z,71.30
2023-01-17T23:55:40.599Z,71.20
2023-01-17T23:58:09.137Z,71.20
